Terminal Aerodrome Forecast
Issued by NWS

Home | Current Version | Previous Version | Graphics & Text | Print | Product List | Glossary On
Versions: 1 2 3 4 5 6 7 8 9 10 11 12 13 14 15 16 17 18 19 20 21 22 23 24 25 26 27 28 29 30
000
FTUS43 KLOT 222051 AAA
TAFGYY
TAF AMD
KGYY 222051Z 2221/2318 03007KT 1/4SM FG OVC001
     FM230600 35011KT 1/2SM FG OVC003
     FM231500 34010KT 6SM BR OVC010=

USA.gov is the U.S. government's official web portal to all federal, state and local government web resources and services.